sensor_id;sensor_type;location;lat;lon;timestamp;P1;durP1;ratioP1;P2;durP2;ratioP2
32216;SDS011;67098;51.140;4.088;2023-05-31T00:00:21;5.63;;;4.53;;
32216;SDS011;67098;51.140;4.088;2023-05-31T00:02:47;7.38;;;4.57;;
32216;SDS011;67098;51.140;4.088;2023-05-31T00:05:12;7.57;;;4.88;;
32216;SDS011;67098;51.140;4.088;2023-05-31T00:07:38;8.48;;;4.80;;
32216;SDS011;67098;51.140;4.088;2023-05-31T00:10:04;7.22;;;5.00;;
32216;SDS011;67098;51.140;4.088;2023-05-31T00:12:30;7.68;;;5.22;;
32216;SDS011;67098;51.140;4.088;2023-05-31T00:14:56;7.30;;;4.82;;
32216;SDS011;67098;51.140;4.088;2023-05-31T00:17:22;6.20;;;4.72;;
32216;SDS011;67098;51.140;4.088;2023-05-31T00:19:47;6.20;;;4.85;;
32216;SDS011;67098;51.140;4.088;2023-05-31T00:22:13;11.38;;;5.05;;
32216;SDS011;67098;51.140;4.088;2023-05-31T00:24:42;7.13;;;5.22;;
32216;SDS011;67098;51.140;4.088;2023-05-31T00:27:08;8.25;;;4.68;;
32216;SDS011;67098;51.140;4.088;2023-05-31T00:29:34;8.88;;;5.40;;
32216;SDS011;67098;51.140;4.088;2023-05-31T00:32:00;7.55;;;5.35;;
32216;SDS011;67098;51.140;4.088;2023-05-31T00:34:26;10.68;;;4.65;;
32216;SDS011;67098;51.140;4.088;2023-05-31T00:36:51;6.70;;;5.15;;
32216;SDS011;67098;51.140;4.088;2023-05-31T00:39:17;10.88;;;5.22;;
32216;SDS011;67098;51.140;4.088;2023-05-31T00:41:43;9.98;;;4.97;;
32216;SDS011;67098;51.140;4.088;2023-05-31T00:44:10;7.22;;;5.20;;
32216;SDS011;67098;51.140;4.088;2023-05-31T00:46:36;8.10;;;5.43;;
32216;SDS011;67098;51.140;4.088;2023-05-31T00:49:03;9.23;;;5.20;;
32216;SDS011;67098;51.140;4.088;2023-05-31T00:51:30;10.38;;;5.75;;
32216;SDS011;67098;51.140;4.088;2023-05-31T00:53:57;8.75;;;5.50;;
32216;SDS011;67098;51.140;4.088;2023-05-31T00:56:24;7.47;;;5.43;;
32216;SDS011;67098;51.140;4.088;2023-05-31T00:58:50;8.48;;;5.40;;
32216;SDS011;67098;51.140;4.088;2023-05-31T01:01:18;9.55;;;5.88;;
32216;SDS011;67098;51.140;4.088;2023-05-31T01:03:45;7.55;;;5.60;;
32216;SDS011;67098;51.140;4.088;2023-05-31T01:06:11;8.43;;;5.82;;
32216;SDS011;67098;51.140;4.088;2023-05-31T01:08:37;8.10;;;5.80;;
32216;SDS011;67098;51.140;4.088;2023-05-31T01:13:52;9.93;;;5.38;;
32216;SDS011;67098;51.140;4.088;2023-05-31T01:16:36;7.50;;;5.80;;
32216;SDS011;67098;51.140;4.088;2023-05-31T01:19:12;8.80;;;5.97;;
32216;SDS011;67098;51.140;4.088;2023-05-31T01:24:25;9.70;;;5.63;;
32216;SDS011;67098;51.140;4.088;2023-05-31T01:26:56;9.15;;;6.75;;
32216;SDS011;67098;51.140;4.088;2023-05-31T01:29:26;7.07;;;5.80;;
32216;SDS011;67098;51.140;4.088;2023-05-31T01:31:53;8.98;;;6.18;;
32216;SDS011;67098;51.140;4.088;2023-05-31T01:34:22;7.15;;;5.90;;
32216;SDS011;67098;51.140;4.088;2023-05-31T01:36:48;10.60;;;5.93;;
32216;SDS011;67098;51.140;4.088;2023-05-31T01:39:14;9.30;;;6.38;;
32216;SDS011;67098;51.140;4.088;2023-05-31T01:41:40;9.68;;;5.93;;
32216;SDS011;67098;51.140;4.088;2023-05-31T01:44:09;10.55;;;6.03;;
32216;SDS011;67098;51.140;4.088;2023-05-31T01:46:38;11.60;;;6.18;;
32216;SDS011;67098;51.140;4.088;2023-05-31T01:49:05;13.15;;;5.40;;
32216;SDS011;67098;51.140;4.088;2023-05-31T01:51:32;11.98;;;6.68;;
32216;SDS011;67098;51.140;4.088;2023-05-31T01:54:01;7.35;;;5.55;;
32216;SDS011;67098;51.140;4.088;2023-05-31T01:56:27;9.93;;;5.85;;
32216;SDS011;67098;51.140;4.088;2023-05-31T01:58:55;8.73;;;6.22;;
32216;SDS011;67098;51.140;4.088;2023-05-31T02:01:23;9.02;;;6.05;;
32216;SDS011;67098;51.140;4.088;2023-05-31T02:03:49;9.10;;;6.30;;
32216;SDS011;67098;51.140;4.088;2023-05-31T02:06:18;9.30;;;6.50;;
32216;SDS011;67098;51.140;4.088;2023-05-31T02:08:44;9.27;;;6.63;;
32216;SDS011;67098;51.140;4.088;2023-05-31T02:11:10;10.65;;;6.07;;
32216;SDS011;67098;51.140;4.088;2023-05-31T02:13:36;11.02;;;6.20;;
32216;SDS011;67098;51.140;4.088;2023-05-31T02:16:02;9.38;;;5.60;;
32216;SDS011;67098;51.140;4.088;2023-05-31T02:18:31;8.23;;;6.18;;
32216;SDS011;67098;51.140;4.088;2023-05-31T02:20:57;9.18;;;6.30;;
32216;SDS011;67098;51.140;4.088;2023-05-31T02:23:23;13.05;;;6.90;;
32216;SDS011;67098;51.140;4.088;2023-05-31T02:25:49;10.07;;;6.78;;
32216;SDS011;67098;51.140;4.088;2023-05-31T02:28:16;11.98;;;6.45;;
32216;SDS011;67098;51.140;4.088;2023-05-31T02:31:00;10.05;;;6.70;;
32216;SDS011;67098;51.140;4.088;2023-05-31T02:33:26;9.98;;;6.60;;
32216;SDS011;67098;51.140;4.088;2023-05-31T02:35:53;12.10;;;7.05;;
32216;SDS011;67098;51.140;4.088;2023-05-31T02:38:19;11.75;;;6.88;;
32216;SDS011;67098;51.140;4.088;2023-05-31T02:40:46;11.85;;;7.10;;
32216;SDS011;67098;51.140;4.088;2023-05-31T02:43:12;9.52;;;6.97;;
32216;SDS011;67098;51.140;4.088;2023-05-31T02:45:37;12.35;;;7.68;;
32216;SDS011;67098;51.140;4.088;2023-05-31T02:48:03;12.20;;;7.32;;
32216;SDS011;67098;51.140;4.088;2023-05-31T02:50:30;10.10;;;6.80;;
32216;SDS011;67098;51.140;4.088;2023-05-31T02:52:57;11.25;;;7.68;;
32216;SDS011;67098;51.140;4.088;2023-05-31T02:55:25;12.48;;;7.72;;
32216;SDS011;67098;51.140;4.088;2023-05-31T02:57:50;12.98;;;8.15;;
32216;SDS011;67098;51.140;4.088;2023-05-31T03:00:16;14.07;;;8.25;;
32216;SDS011;67098;51.140;4.088;2023-05-31T03:02:43;11.40;;;7.90;;
32216;SDS011;67098;51.140;4.088;2023-05-31T03:05:09;11.85;;;7.80;;
32216;SDS011;67098;51.140;4.088;2023-05-31T03:07:35;15.85;;;7.70;;
32216;SDS011;67098;51.140;4.088;2023-05-31T03:10:01;14.30;;;8.07;;
32216;SDS011;67098;51.140;4.088;2023-05-31T03:12:29;13.57;;;8.30;;
32216;SDS011;67098;51.140;4.088;2023-05-31T03:14:55;11.15;;;7.47;;
32216;SDS011;67098;51.140;4.088;2023-05-31T03:17:21;12.02;;;8.02;;
32216;SDS011;67098;51.140;4.088;2023-05-31T03:19:47;10.80;;;7.72;;
32216;SDS011;67098;51.140;4.088;2023-05-31T03:22:13;12.00;;;8.45;;
32216;SDS011;67098;51.140;4.088;2023-05-31T03:24:39;12.70;;;7.75;;
32216;SDS011;67098;51.140;4.088;2023-05-31T03:27:05;12.48;;;8.43;;
32216;SDS011;67098;51.140;4.088;2023-05-31T03:29:31;11.80;;;8.35;;
32216;SDS011;67098;51.140;4.088;2023-05-31T03:31:58;13.63;;;8.60;;
32216;SDS011;67098;51.140;4.088;2023-05-31T03:34:24;18.00;;;8.68;;
32216;SDS011;67098;51.140;4.088;2023-05-31T03:36:50;14.50;;;8.63;;
32216;SDS011;67098;51.140;4.088;2023-05-31T03:39:16;15.15;;;9.27;;
32216;SDS011;67098;51.140;4.088;2023-05-31T03:41:41;13.63;;;8.30;;
32216;SDS011;67098;51.140;4.088;2023-05-31T03:44:07;16.00;;;9.35;;
32216;SDS011;67098;51.140;4.088;2023-05-31T03:46:33;14.90;;;9.10;;
32216;SDS011;67098;51.140;4.088;2023-05-31T03:48:58;16.02;;;8.95;;
32216;SDS011;67098;51.140;4.088;2023-05-31T03:51:25;14.75;;;8.73;;
32216;SDS011;67098;51.140;4.088;2023-05-31T03:53:50;15.95;;;9.23;;
32216;SDS011;67098;51.140;4.088;2023-05-31T03:56:16;14.18;;;9.07;;
32216;SDS011;67098;51.140;4.088;2023-05-31T03:58:42;14.20;;;9.32;;
32216;SDS011;67098;51.140;4.088;2023-05-31T04:01:08;18.73;;;9.50;;
32216;SDS011;67098;51.140;4.088;2023-05-31T04:03:33;15.90;;;9.35;;
32216;SDS011;67098;51.140;4.088;2023-05-31T04:06:01;14.13;;;8.90;;
32216;SDS011;67098;51.140;4.088;2023-05-31T04:08:27;16.13;;;9.57;;
32216;SDS011;67098;51.140;4.088;2023-05-31T04:10:53;16.25;;;9.75;;
32216;SDS011;67098;51.140;4.088;2023-05-31T04:13:19;14.50;;;9.55;;
32216;SDS011;67098;51.140;4.088;2023-05-31T04:15:45;16.67;;;10.00;;
32216;SDS011;67098;51.140;4.088;2023-05-31T04:18:10;16.50;;;9.43;;
32216;SDS011;67098;51.140;4.088;2023-05-31T04:20:36;16.48;;;9.30;;
32216;SDS011;67098;51.140;4.088;2023-05-31T04:23:02;17.13;;;9.18;;
32216;SDS011;67098;51.140;4.088;2023-05-31T04:25:28;17.50;;;9.60;;
32216;SDS011;67098;51.140;4.088;2023-05-31T04:27:54;17.35;;;9.35;;
32216;SDS011;67098;51.140;4.088;2023-05-31T04:30:21;15.93;;;9.18;;
32216;SDS011;67098;51.140;4.088;2023-05-31T04:32:48;15.93;;;10.73;;
32216;SDS011;67098;51.140;4.088;2023-05-31T04:35:17;16.48;;;9.73;;
32216;SDS011;67098;51.140;4.088;2023-05-31T04:37:43;14.88;;;9.77;;
32216;SDS011;67098;51.140;4.088;2023-05-31T04:40:09;16.08;;;10.23;;
32216;SDS011;67098;51.140;4.088;2023-05-31T04:42:36;16.73;;;9.45;;
32216;SDS011;67098;51.140;4.088;2023-05-31T04:45:02;17.60;;;10.15;;
32216;SDS011;67098;51.140;4.088;2023-05-31T04:47:32;16.80;;;9.00;;
32216;SDS011;67098;51.140;4.088;2023-05-31T04:49:59;15.27;;;9.55;;
32216;SDS011;67098;51.140;4.088;2023-05-31T04:52:28;17.85;;;9.05;;
32216;SDS011;67098;51.140;4.088;2023-05-31T04:54:57;15.45;;;9.00;;
32216;SDS011;67098;51.140;4.088;2023-05-31T04:57:24;15.15;;;9.18;;
32216;SDS011;67098;51.140;4.088;2023-05-31T04:59:54;19.55;;;9.30;;
32216;SDS011;67098;51.140;4.088;2023-05-31T05:02:23;15.30;;;8.93;;
32216;SDS011;67098;51.140;4.088;2023-05-31T05:04:49;14.90;;;9.40;;
32216;SDS011;67098;51.140;4.088;2023-05-31T05:07:15;14.27;;;9.15;;
32216;SDS011;67098;51.140;4.088;2023-05-31T05:09:42;17.88;;;9.90;;
32216;SDS011;67098;51.140;4.088;2023-05-31T05:12:08;14.52;;;9.60;;
32216;SDS011;67098;51.140;4.088;2023-05-31T05:14:34;14.30;;;9.20;;
32216;SDS011;67098;51.140;4.088;2023-05-31T05:17:00;15.07;;;9.82;;
32216;SDS011;67098;51.140;4.088;2023-05-31T05:19:26;20.02;;;9.75;;
32216;SDS011;67098;51.140;4.088;2023-05-31T05:21:52;17.58;;;9.55;;
32216;SDS011;67098;51.140;4.088;2023-05-31T05:24:17;18.45;;;9.68;;
32216;SDS011;67098;51.140;4.088;2023-05-31T05:26:43;13.13;;;9.05;;
32216;SDS011;67098;51.140;4.088;2023-05-31T05:29:10;16.90;;;9.85;;
32216;SDS011;67098;51.140;4.088;2023-05-31T05:31:35;16.13;;;8.93;;
32216;SDS011;67098;51.140;4.088;2023-05-31T05:34:01;17.92;;;10.05;;
32216;SDS011;67098;51.140;4.088;2023-05-31T05:36:27;16.17;;;9.38;;
32216;SDS011;67098;51.140;4.088;2023-05-31T05:38:53;24.05;;;9.85;;
32216;SDS011;67098;51.140;4.088;2023-05-31T05:41:20;15.30;;;9.93;;
32216;SDS011;67098;51.140;4.088;2023-05-31T05:43:47;13.40;;;8.88;;
32216;SDS011;67098;51.140;4.088;2023-05-31T05:46:13;16.75;;;10.23;;
32216;SDS011;67098;51.140;4.088;2023-05-31T05:48:38;16.95;;;9.80;;
32216;SDS011;67098;51.140;4.088;2023-05-31T05:51:04;13.63;;;9.65;;
32216;SDS011;67098;51.140;4.088;2023-05-31T05:53:30;14.07;;;10.23;;
32216;SDS011;67098;51.140;4.088;2023-05-31T05:55:56;13.23;;;9.10;;
32216;SDS011;67098;51.140;4.088;2023-05-31T05:58:22;16.45;;;9.95;;
32216;SDS011;67098;51.140;4.088;2023-05-31T06:00:48;21.67;;;9.88;;
32216;SDS011;67098;51.140;4.088;2023-05-31T06:03:14;15.40;;;9.90;;
32216;SDS011;67098;51.140;4.088;2023-05-31T06:05:43;17.55;;;9.85;;
32216;SDS011;67098;51.140;4.088;2023-05-31T06:08:09;18.42;;;9.85;;
32216;SDS011;67098;51.140;4.088;2023-05-31T06:10:36;22.38;;;10.88;;
32216;SDS011;67098;51.140;4.088;2023-05-31T06:13:02;17.83;;;10.15;;
32216;SDS011;67098;51.140;4.088;2023-05-31T06:15:29;16.45;;;9.68;;
32216;SDS011;67098;51.140;4.088;2023-05-31T06:17:55;17.10;;;9.85;;
32216;SDS011;67098;51.140;4.088;2023-05-31T06:20:21;14.93;;;9.52;;
32216;SDS011;67098;51.140;4.088;2023-05-31T06:22:47;17.33;;;9.77;;
32216;SDS011;67098;51.140;4.088;2023-05-31T06:25:15;16.90;;;10.13;;
32216;SDS011;67098;51.140;4.088;2023-05-31T06:27:43;16.13;;;9.15;;
32216;SDS011;67098;51.140;4.088;2023-05-31T06:30:11;17.00;;;10.02;;
32216;SDS011;67098;51.140;4.088;2023-05-31T06:32:37;20.02;;;10.20;;
32216;SDS011;67098;51.140;4.088;2023-05-31T06:35:03;18.95;;;10.15;;
32216;SDS011;67098;51.140;4.088;2023-05-31T06:37:30;15.63;;;9.98;;
32216;SDS011;67098;51.140;4.088;2023-05-31T06:39:56;18.92;;;10.55;;
32216;SDS011;67098;51.140;4.088;2023-05-31T06:42:22;18.00;;;10.75;;
32216;SDS011;67098;51.140;4.088;2023-05-31T06:44:48;15.32;;;9.77;;
32216;SDS011;67098;51.140;4.088;2023-05-31T06:47:13;15.70;;;10.25;;
32216;SDS011;67098;51.140;4.088;2023-05-31T06:49:39;17.67;;;9.35;;
32216;SDS011;67098;51.140;4.088;2023-05-31T06:52:05;18.13;;;9.75;;
32216;SDS011;67098;51.140;4.088;2023-05-31T06:54:34;16.98;;;9.60;;
32216;SDS011;67098;51.140;4.088;2023-05-31T06:57:01;23.85;;;11.30;;
32216;SDS011;67098;51.140;4.088;2023-05-31T06:59:27;18.52;;;10.25;;
32216;SDS011;67098;51.140;4.088;2023-05-31T07:01:53;18.73;;;9.60;;
32216;SDS011;67098;51.140;4.088;2023-05-31T07:04:19;15.25;;;10.02;;
32216;SDS011;67098;51.140;4.088;2023-05-31T07:06:45;17.20;;;10.00;;
32216;SDS011;67098;51.140;4.088;2023-05-31T07:09:11;19.55;;;10.18;;
32216;SDS011;67098;51.140;4.088;2023-05-31T07:11:40;16.83;;;9.80;;
32216;SDS011;67098;51.140;4.088;2023-05-31T07:14:07;20.77;;;10.48;;
32216;SDS011;67098;51.140;4.088;2023-05-31T07:16:33;16.27;;;10.50;;
32216;SDS011;67098;51.140;4.088;2023-05-31T07:18:59;20.77;;;10.70;;
32216;SDS011;67098;51.140;4.088;2023-05-31T07:21:25;19.20;;;9.48;;
32216;SDS011;67098;51.140;4.088;2023-05-31T07:23:51;18.52;;;10.80;;
32216;SDS011;67098;51.140;4.088;2023-05-31T07:26:17;17.30;;;9.75;;
32216;SDS011;67098;51.140;4.088;2023-05-31T07:28:45;18.38;;;9.48;;
32216;SDS011;67098;51.140;4.088;2023-05-31T07:31:12;18.42;;;11.25;;
32216;SDS011;67098;51.140;4.088;2023-05-31T07:33:41;19.77;;;10.35;;
32216;SDS011;67098;51.140;4.088;2023-05-31T07:36:06;24.02;;;10.48;;
32216;SDS011;67098;51.140;4.088;2023-05-31T07:38:32;18.75;;;10.60;;
32216;SDS011;67098;51.140;4.088;2023-05-31T07:40:58;14.43;;;9.43;;
32216;SDS011;67098;51.140;4.088;2023-05-31T07:43:24;17.48;;;10.40;;
32216;SDS011;67098;51.140;4.088;2023-05-31T07:45:50;17.30;;;10.93;;
32216;SDS011;67098;51.140;4.088;2023-05-31T07:48:17;16.95;;;10.07;;
32216;SDS011;67098;51.140;4.088;2023-05-31T07:50:43;19.67;;;11.45;;
32216;SDS011;67098;51.140;4.088;2023-05-31T07:53:09;17.50;;;11.50;;
32216;SDS011;67098;51.140;4.088;2023-05-31T07:55:35;20.65;;;11.20;;
32216;SDS011;67098;51.140;4.088;2023-05-31T07:58:02;16.45;;;10.82;;
32216;SDS011;67098;51.140;4.088;2023-05-31T08:00:28;16.35;;;9.95;;
32216;SDS011;67098;51.140;4.088;2023-05-31T08:02:54;22.55;;;10.60;;
32216;SDS011;67098;51.140;4.088;2023-05-31T08:05:20;18.73;;;9.45;;
32216;SDS011;67098;51.140;4.088;2023-05-31T08:07:47;19.02;;;11.13;;
32216;SDS011;67098;51.140;4.088;2023-05-31T08:10:14;20.95;;;10.45;;
32216;SDS011;67098;51.140;4.088;2023-05-31T08:12:40;21.48;;;9.88;;
32216;SDS011;67098;51.140;4.088;2023-05-31T08:15:06;17.33;;;9.77;;
32216;SDS011;67098;51.140;4.088;2023-05-31T08:17:32;17.73;;;9.43;;
32216;SDS011;67098;51.140;4.088;2023-05-31T08:19:58;18.48;;;10.35;;
32216;SDS011;67098;51.140;4.088;2023-05-31T08:22:24;22.33;;;10.80;;
32216;SDS011;67098;51.140;4.088;2023-05-31T08:24:50;20.15;;;10.55;;
32216;SDS011;67098;51.140;4.088;2023-05-31T08:27:15;17.05;;;10.32;;
32216;SDS011;67098;51.140;4.088;2023-05-31T08:29:42;15.98;;;10.38;;
32216;SDS011;67098;51.140;4.088;2023-05-31T08:32:08;21.23;;;9.95;;
32216;SDS011;67098;51.140;4.088;2023-05-31T08:34:34;19.00;;;10.43;;
32216;SDS011;67098;51.140;4.088;2023-05-31T08:37:00;14.30;;;8.60;;
32216;SDS011;67098;51.140;4.088;2023-05-31T08:39:26;20.08;;;10.77;;
32216;SDS011;67098;51.140;4.088;2023-05-31T08:41:53;17.65;;;9.75;;
32216;SDS011;67098;51.140;4.088;2023-05-31T08:44:21;23.98;;;10.40;;
32216;SDS011;67098;51.140;4.088;2023-05-31T08:46:48;17.95;;;10.43;;
32216;SDS011;67098;51.140;4.088;2023-05-31T08:49:14;17.92;;;10.50;;
32216;SDS011;67098;51.140;4.088;2023-05-31T08:51:44;17.10;;;10.98;;
32216;SDS011;67098;51.140;4.088;2023-05-31T08:54:13;18.30;;;10.23;;
32216;SDS011;67098;51.140;4.088;2023-05-31T08:56:39;16.80;;;9.57;;
32216;SDS011;67098;51.140;4.088;2023-05-31T08:59:10;17.40;;;10.00;;
32216;SDS011;67098;51.140;4.088;2023-05-31T09:01:42;21.27;;;11.35;;
32216;SDS011;67098;51.140;4.088;2023-05-31T09:04:09;16.65;;;10.27;;
32216;SDS011;67098;51.140;4.088;2023-05-31T09:06:35;21.08;;;11.05;;
32216;SDS011;67098;51.140;4.088;2023-05-31T09:09:01;17.30;;;9.02;;
32216;SDS011;67098;51.140;4.088;2023-05-31T09:11:27;17.77;;;9.60;;
32216;SDS011;67098;51.140;4.088;2023-05-31T09:13:53;16.77;;;9.88;;
32216;SDS011;67098;51.140;4.088;2023-05-31T09:16:20;17.40;;;10.05;;
32216;SDS011;67098;51.140;4.088;2023-05-31T09:18:47;17.80;;;10.95;;
32216;SDS011;67098;51.140;4.088;2023-05-31T09:21:13;22.27;;;10.75;;
32216;SDS011;67098;51.140;4.088;2023-05-31T09:23:55;14.88;;;10.25;;
32216;SDS011;67098;51.140;4.088;2023-05-31T09:26:23;22.38;;;9.23;;
32216;SDS011;67098;51.140;4.088;2023-05-31T09:28:51;21.13;;;10.90;;
32216;SDS011;67098;51.140;4.088;2023-05-31T09:31:17;16.85;;;9.68;;
32216;SDS011;67098;51.140;4.088;2023-05-31T09:33:44;17.52;;;8.68;;
32216;SDS011;67098;51.140;4.088;2023-05-31T09:36:13;16.80;;;9.65;;
32216;SDS011;67098;51.140;4.088;2023-05-31T09:38:39;18.35;;;10.18;;
32216;SDS011;67098;51.140;4.088;2023-05-31T09:43:41;17.17;;;9.35;;
32216;SDS011;67098;51.140;4.088;2023-05-31T09:46:11;17.08;;;9.07;;
32216;SDS011;67098;51.140;4.088;2023-05-31T09:48:38;16.48;;;9.40;;
32216;SDS011;67098;51.140;4.088;2023-05-31T09:51:08;14.25;;;8.40;;
32216;SDS011;67098;51.140;4.088;2023-05-31T09:53:38;12.18;;;7.65;;
32216;SDS011;67098;51.140;4.088;2023-05-31T09:56:12;14.65;;;9.20;;
32216;SDS011;67098;51.140;4.088;2023-05-31T09:58:43;12.52;;;8.30;;
32216;SDS011;67098;51.140;4.088;2023-05-31T10:01:09;17.42;;;8.73;;
32216;SDS011;67098;51.140;4.088;2023-05-31T10:03:36;20.30;;;9.13;;
32216;SDS011;67098;51.140;4.088;2023-05-31T10:06:03;16.05;;;7.80;;
32216;SDS011;67098;51.140;4.088;2023-05-31T10:08:29;16.13;;;7.60;;
32216;SDS011;67098;51.140;4.088;2023-05-31T10:10:58;16.10;;;8.73;;
32216;SDS011;67098;51.140;4.088;2023-05-31T10:13:26;21.88;;;9.32;;
32216;SDS011;67098;51.140;4.088;2023-05-31T10:15:54;17.85;;;9.30;;
32216;SDS011;67098;51.140;4.088;2023-05-31T10:18:28;22.55;;;7.85;;
32216;SDS011;67098;51.140;4.088;2023-05-31T10:21:16;13.77;;;7.45;;
32216;SDS011;67098;51.140;4.088;2023-05-31T10:23:57;16.50;;;8.18;;
32216;SDS011;67098;51.140;4.088;2023-05-31T10:26:44;15.00;;;8.32;;
32216;SDS011;67098;51.140;4.088;2023-05-31T10:29:31;9.80;;;6.70;;
32216;SDS011;67098;51.140;4.088;2023-05-31T10:32:06;18.17;;;7.75;;
32216;SDS011;67098;51.140;4.088;2023-05-31T10:34:54;12.95;;;7.95;;
32216;SDS011;67098;51.140;4.088;2023-05-31T10:37:20;18.38;;;7.53;;
32216;SDS011;67098;51.140;4.088;2023-05-31T10:39:48;13.20;;;6.45;;
32216;SDS011;67098;51.140;4.088;2023-05-31T10:45:01;15.05;;;6.22;;
32216;SDS011;67098;51.140;4.088;2023-05-31T10:50:26;13.75;;;6.07;;
32216;SDS011;67098;51.140;4.088;2023-05-31T10:52:53;14.85;;;6.47;;
32216;SDS011;67098;51.140;4.088;2023-05-31T10:55:39;14.32;;;6.60;;
32216;SDS011;67098;51.140;4.088;2023-05-31T10:58:29;13.57;;;7.50;;
32216;SDS011;67098;51.140;4.088;2023-05-31T11:00:56;13.10;;;6.15;;
32216;SDS011;67098;51.140;4.088;2023-05-31T11:03:23;14.30;;;6.88;;
32216;SDS011;67098;51.140;4.088;2023-05-31T11:05:57;13.55;;;6.50;;
32216;SDS011;67098;51.140;4.088;2023-05-31T11:08:27;10.73;;;6.18;;
32216;SDS011;67098;51.140;4.088;2023-05-31T11:10:59;17.08;;;6.97;;
32216;SDS011;67098;51.140;4.088;2023-05-31T11:13:58;11.52;;;5.28;;
32216;SDS011;67098;51.140;4.088;2023-05-31T11:16:27;12.38;;;6.63;;
32216;SDS011;67098;51.140;4.088;2023-05-31T11:25:13;13.75;;;6.15;;
32216;SDS011;67098;51.140;4.088;2023-05-31T11:27:15;19.45;;;6.20;;
32216;SDS011;67098;51.140;4.088;2023-05-31T11:32:17;16.90;;;5.68;;
32216;SDS011;67098;51.140;4.088;2023-05-31T11:34:50;12.38;;;5.50;;
32216;SDS011;67098;51.140;4.088;2023-05-31T11:39:53;14.00;;;5.88;;
32216;SDS011;67098;51.140;4.088;2023-05-31T11:42:23;11.05;;;5.97;;
32216;SDS011;67098;51.140;4.088;2023-05-31T11:44:49;11.95;;;5.47;;
32216;SDS011;67098;51.140;4.088;2023-05-31T11:47:27;14.30;;;5.70;;
32216;SDS011;67098;51.140;4.088;2023-05-31T11:50:01;17.35;;;5.80;;
32216;SDS011;67098;51.140;4.088;2023-05-31T11:52:28;15.55;;;4.95;;
32216;SDS011;67098;51.140;4.088;2023-05-31T11:54:54;10.50;;;4.75;;
32216;SDS011;67098;51.140;4.088;2023-05-31T11:57:29;16.15;;;5.55;;
32216;SDS011;67098;51.140;4.088;2023-05-31T11:59:55;11.05;;;5.47;;
32216;SDS011;67098;51.140;4.088;2023-05-31T12:02:32;12.20;;;5.70;;
32216;SDS011;67098;51.140;4.088;2023-05-31T12:04:59;19.38;;;6.05;;
32216;SDS011;67098;51.140;4.088;2023-05-31T12:07:25;17.48;;;5.95;;
32216;SDS011;67098;51.140;4.088;2023-05-31T12:09:51;14.30;;;5.70;;
32216;SDS011;67098;51.140;4.088;2023-05-31T12:12:16;10.63;;;4.72;;
32216;SDS011;67098;51.140;4.088;2023-05-31T12:14:52;11.32;;;5.18;;
32216;SDS011;67098;51.140;4.088;2023-05-31T12:17:19;8.25;;;4.95;;
32216;SDS011;67098;51.140;4.088;2023-05-31T12:19:49;11.40;;;4.63;;
32216;SDS011;67098;51.140;4.088;2023-05-31T12:22:15;15.00;;;6.25;;
32216;SDS011;67098;51.140;4.088;2023-05-31T12:24:47;14.95;;;5.85;;
32216;SDS011;67098;51.140;4.088;2023-05-31T12:27:18;17.38;;;5.40;;
32216;SDS011;67098;51.140;4.088;2023-05-31T12:29:45;13.57;;;4.75;;
32216;SDS011;67098;51.140;4.088;2023-05-31T12:32:10;16.73;;;5.63;;
32216;SDS011;67098;51.140;4.088;2023-05-31T12:34:37;18.42;;;5.50;;
32216;SDS011;67098;51.140;4.088;2023-05-31T12:37:06;9.15;;;4.55;;
32216;SDS011;67098;51.140;4.088;2023-05-31T12:39:34;8.77;;;3.58;;
32216;SDS011;67098;51.140;4.088;2023-05-31T12:42:00;14.25;;;4.30;;
32216;SDS011;67098;51.140;4.088;2023-05-31T12:44:28;12.18;;;4.40;;
32216;SDS011;67098;51.140;4.088;2023-05-31T12:47:01;12.30;;;4.57;;
32216;SDS011;67098;51.140;4.088;2023-05-31T12:49:29;13.95;;;4.72;;
32216;SDS011;67098;51.140;4.088;2023-05-31T12:51:59;14.43;;;5.03;;
32216;SDS011;67098;51.140;4.088;2023-05-31T12:54:36;13.70;;;4.20;;
32216;SDS011;67098;51.140;4.088;2023-05-31T12:57:07;10.38;;;3.50;;
32216;SDS011;67098;51.140;4.088;2023-05-31T12:59:34;8.40;;;3.83;;
32216;SDS011;67098;51.140;4.088;2023-05-31T13:02:00;20.90;;;3.88;;
32216;SDS011;67098;51.140;4.088;2023-05-31T13:04:28;12.90;;;3.53;;
32216;SDS011;67098;51.140;4.088;2023-05-31T13:06:54;11.85;;;4.07;;
32216;SDS011;67098;51.140;4.088;2023-05-31T13:09:22;8.60;;;3.78;;
32216;SDS011;67098;51.140;4.088;2023-05-31T13:11:48;10.52;;;3.30;;
32216;SDS011;67098;51.140;4.088;2023-05-31T13:14:16;10.13;;;3.58;;
32216;SDS011;67098;51.140;4.088;2023-05-31T13:16:44;8.93;;;4.07;;
32216;SDS011;67098;51.140;4.088;2023-05-31T13:19:10;10.73;;;3.47;;
32216;SDS011;67098;51.140;4.088;2023-05-31T13:21:37;11.65;;;3.45;;
32216;SDS011;67098;51.140;4.088;2023-05-31T13:24:03;7.53;;;3.20;;
32216;SDS011;67098;51.140;4.088;2023-05-31T13:26:33;7.97;;;3.22;;
32216;SDS011;67098;51.140;4.088;2023-05-31T13:29:00;12.60;;;2.95;;
32216;SDS011;67098;51.140;4.088;2023-05-31T13:31:28;10.05;;;3.92;;
32216;SDS011;67098;51.140;4.088;2023-05-31T13:33:54;8.88;;;3.58;;
32216;SDS011;67098;51.140;4.088;2023-05-31T13:36:20;12.32;;;3.90;;
32216;SDS011;67098;51.140;4.088;2023-05-31T13:38:48;11.98;;;3.47;;
32216;SDS011;67098;51.140;4.088;2023-05-31T13:41:14;12.40;;;3.83;;
32216;SDS011;67098;51.140;4.088;2023-05-31T13:43:40;10.43;;;3.60;;
32216;SDS011;67098;51.140;4.088;2023-05-31T13:46:06;10.07;;;3.80;;
32216;SDS011;67098;51.140;4.088;2023-05-31T13:48:39;14.27;;;3.45;;
32216;SDS011;67098;51.140;4.088;2023-05-31T13:51:05;11.93;;;3.80;;
32216;SDS011;67098;51.140;4.088;2023-05-31T13:53:31;11.30;;;2.80;;
32216;SDS011;67098;51.140;4.088;2023-05-31T13:55:57;10.05;;;3.35;;
32216;SDS011;67098;51.140;4.088;2023-05-31T13:58:24;12.20;;;4.13;;
32216;SDS011;67098;51.140;4.088;2023-05-31T14:00:50;8.98;;;4.03;;
32216;SDS011;67098;51.140;4.088;2023-05-31T14:03:16;11.70;;;3.53;;
32216;SDS011;67098;51.140;4.088;2023-05-31T14:05:42;11.10;;;3.70;;
32216;SDS011;67098;51.140;4.088;2023-05-31T14:08:17;6.43;;;2.97;;
32216;SDS011;67098;51.140;4.088;2023-05-31T14:10:42;7.82;;;3.08;;
32216;SDS011;67098;51.140;4.088;2023-05-31T14:13:08;9.00;;;2.83;;
32216;SDS011;67098;51.140;4.088;2023-05-31T14:15:35;10.02;;;3.05;;
32216;SDS011;67098;51.140;4.088;2023-05-31T14:18:01;9.93;;;2.70;;
32216;SDS011;67098;51.140;4.088;2023-05-31T14:20:27;8.18;;;2.63;;
32216;SDS011;67098;51.140;4.088;2023-05-31T14:22:53;12.52;;;3.80;;
32216;SDS011;67098;51.140;4.088;2023-05-31T14:25:19;7.65;;;2.60;;
32216;SDS011;67098;51.140;4.088;2023-05-31T14:27:45;9.48;;;3.65;;
32216;SDS011;67098;51.140;4.088;2023-05-31T14:30:11;8.82;;;3.00;;
32216;SDS011;67098;51.140;4.088;2023-05-31T14:32:37;6.13;;;2.72;;
32216;SDS011;67098;51.140;4.088;2023-05-31T14:35:02;11.65;;;2.67;;
32216;SDS011;67098;51.140;4.088;2023-05-31T14:37:29;10.48;;;3.30;;
32216;SDS011;67098;51.140;4.088;2023-05-31T14:39:54;14.45;;;4.03;;
32216;SDS011;67098;51.140;4.088;2023-05-31T14:42:21;9.65;;;3.10;;
32216;SDS011;67098;51.140;4.088;2023-05-31T14:44:48;10.80;;;3.17;;
32216;SDS011;67098;51.140;4.088;2023-05-31T14:47:13;8.98;;;2.97;;
32216;SDS011;67098;51.140;4.088;2023-05-31T14:49:39;9.73;;;2.80;;
32216;SDS011;67098;51.140;4.088;2023-05-31T14:52:05;9.73;;;2.65;;
32216;SDS011;67098;51.140;4.088;2023-05-31T14:54:34;6.10;;;2.35;;
32216;SDS011;67098;51.140;4.088;2023-05-31T14:57:00;8.15;;;2.67;;
32216;SDS011;67098;51.140;4.088;2023-05-31T14:59:28;7.72;;;2.78;;
32216;SDS011;67098;51.140;4.088;2023-05-31T15:01:54;9.88;;;2.88;;